sensor_id;sensor_type;location;lat;lon;timestamp;pressure;altitude;pressure_sealevel;temperature;humidity
63691;BME280;49837;57.280;27.070;2023-11-22T00:00:08;101142.26;;;-8.17;100.0
63691;BME280;49837;57.280;27.070;2023-11-22T00:01:10;101137.8;;;-8.17;100.0
63691;BME280;49837;57.280;27.070;2023-11-22T00:02:08;101142.13;;;-8.19;100.0
63691;BME280;49837;57.280;27.070;2023-11-22T00:03:08;101145.2;;;-8.19;100.0
63691;BME280;49837;57.280;27.070;2023-11-22T00:04:09;101145.19;;;-8.18;100.0
63691;BME280;49837;57.280;27.070;2023-11-22T00:05:09;101145.25;;;-8.17;100.0
63691;BME280;49837;57.280;27.070;2023-11-22T00:06:10;101140.89;;;-8.2;100.0
63691;BME280;49837;57.280;27.070;2023-11-22T00:07:10;101140.45;;;-8.2;100.0
63691;BME280;49837;57.280;27.070;2023-11-22T00:08:10;101143.41;;;-8.18;100.0
63691;BME280;49837;57.280;27.070;2023-11-22T00:09:11;101138.92;;;-8.19;100.0
63691;BME280;49837;57.280;27.070;2023-11-22T00:10:11;101146.95;;;-8.11;100.0
63691;BME280;49837;57.280;27.070;2023-11-22T00:11:11;101149.23;;;-8.16;100.0
63691;BME280;49837;57.280;27.070;2023-11-22T00:12:12;101146.38;;;-8.14;100.0
63691;BME280;49837;57.280;27.070;2023-11-22T00:13:12;101147.31;;;-8.14;100.0
63691;BME280;49837;57.280;27.070;2023-11-22T00:14:13;101146.34;;;-8.14;100.0
63691;BME280;49837;57.280;27.070;2023-11-22T00:15:13;101143.86;;;-8.14;100.0
63691;BME280;49837;57.280;27.070;2023-11-22T00:16:13;101146.25;;;-8.11;100.0
63691;BME280;49837;57.280;27.070;2023-11-22T00:17:14;101142.52;;;-8.07;100.0
63691;BME280;49837;57.280;27.070;2023-11-22T00:18:14;101141.47;;;-8.07;100.0
63691;BME280;49837;57.280;27.070;2023-11-22T00:19:14;101139.41;;;-8.05;100.0
63691;BME280;49837;57.280;27.070;2023-11-22T00:20:15;101135.34;;;-8.05;100.0
63691;BME280;49837;57.280;27.070;2023-11-22T00:21:15;101136.58;;;-8.06;100.0
63691;BME280;49837;57.280;27.070;2023-11-22T00:22:15;101139.21;;;-8.07;100.0
63691;BME280;49837;57.280;27.070;2023-11-22T00:23:16;101137.64;;;-8.06;100.0
63691;BME280;49837;57.280;27.070;2023-11-22T00:24:16;101135.63;;;-8.07;100.0
63691;BME280;49837;57.280;27.070;2023-11-22T00:25:17;101140.23;;;-8.07;100.0
63691;BME280;49837;57.280;27.070;2023-11-22T00:26:17;101134.52;;;-8.07;100.0
63691;BME280;49837;57.280;27.070;2023-11-22T00:27:17;101136.98;;;-8.01;100.0
63691;BME280;49837;57.280;27.070;2023-11-22T00:28:18;101138.62;;;-7.97;100.0
63691;BME280;49837;57.280;27.070;2023-11-22T00:29:18;101141.44;;;-7.95;100.0
63691;BME280;49837;57.280;27.070;2023-11-22T00:30:19;101143.22;;;-8.03;100.0
63691;BME280;49837;57.280;27.070;2023-11-22T00:31:19;101138.69;;;-8.06;100.0
63691;BME280;49837;57.280;27.070;2023-11-22T00:32:19;101140.85;;;-8.05;100.0
63691;BME280;49837;57.280;27.070;2023-11-22T00:33:20;101139.67;;;-8.06;100.0
63691;BME280;49837;57.280;27.070;2023-11-22T00:34:20;101137.91;;;-8.01;100.0
63691;BME280;49837;57.280;27.070;2023-11-22T00:35:20;101136.39;;;-7.99;100.0
63691;BME280;49837;57.280;27.070;2023-11-22T00:36:21;101138.47;;;-7.98;100.0
63691;BME280;49837;57.280;27.070;2023-11-22T00:37:21;101134.58;;;-8.02;100.0
63691;BME280;49837;57.280;27.070;2023-11-22T00:38:22;101131.88;;;-7.95;100.0
63691;BME280;49837;57.280;27.070;2023-11-22T00:39:22;101134.14;;;-7.99;100.0
63691;BME280;49837;57.280;27.070;2023-11-22T00:40:22;101134.12;;;-8.0;100.0
63691;BME280;49837;57.280;27.070;2023-11-22T00:41:23;101135.5;;;-7.98;100.0
63691;BME280;49837;57.280;27.070;2023-11-22T00:42:23;101130.92;;;-7.97;100.0
63691;BME280;49837;57.280;27.070;2023-11-22T00:43:23;101136.18;;;-7.95;100.0
63691;BME280;49837;57.280;27.070;2023-11-22T00:44:24;101143.23;;;-7.91;100.0
63691;BME280;49837;57.280;27.070;2023-11-22T00:45:24;101137.69;;;-7.89;100.0
63691;BME280;49837;57.280;27.070;2023-11-22T00:46:25;101138.42;;;-7.89;100.0
63691;BME280;49837;57.280;27.070;2023-11-22T00:47:25;101141.62;;;-7.92;100.0
63691;BME280;49837;57.280;27.070;2023-11-22T00:48:25;101136.34;;;-7.89;100.0
63691;BME280;49837;57.280;27.070;2023-11-22T00:49:26;101136.45;;;-7.84;100.0
63691;BME280;49837;57.280;27.070;2023-11-22T00:50:26;101134.59;;;-7.82;100.0
63691;BME280;49837;57.280;27.070;2023-11-22T00:51:26;101131.7;;;-7.79;100.0
63691;BME280;49837;57.280;27.070;2023-11-22T00:52:27;101131.99;;;-7.79;100.0
63691;BME280;49837;57.280;27.070;2023-11-22T00:53:27;101130.77;;;-7.85;100.0
63691;BME280;49837;57.280;27.070;2023-11-22T00:54:28;101130.62;;;-7.88;100.0
63691;BME280;49837;57.280;27.070;2023-11-22T00:55:28;101132.89;;;-7.84;100.0
63691;BME280;49837;57.280;27.070;2023-11-22T00:56:28;101124.84;;;-7.82;100.0
63691;BME280;49837;57.280;27.070;2023-11-22T00:57:29;101126.11;;;-7.85;100.0
63691;BME280;49837;57.280;27.070;2023-11-22T00:58:29;101120.89;;;-7.92;100.0
63691;BME280;49837;57.280;27.070;2023-11-22T00:59:29;101123.77;;;-7.9;100.0
63691;BME280;49837;57.280;27.070;2023-11-22T01:00:30;101118.58;;;-7.85;100.0
63691;BME280;49837;57.280;27.070;2023-11-22T01:01:30;101125.26;;;-7.85;100.0
63691;BME280;49837;57.280;27.070;2023-11-22T01:02:31;101130.11;;;-7.81;100.0
63691;BME280;49837;57.280;27.070;2023-11-22T01:03:31;101124.77;;;-7.78;100.0
63691;BME280;49837;57.280;27.070;2023-11-22T01:04:31;101125.39;;;-7.81;100.0
63691;BME280;49837;57.280;27.070;2023-11-22T01:05:32;101124.64;;;-7.84;100.0
63691;BME280;49837;57.280;27.070;2023-11-22T01:06:32;101126.09;;;-7.84;100.0
63691;BME280;49837;57.280;27.070;2023-11-22T01:07:32;101123.34;;;-7.84;100.0
63691;BME280;49837;57.280;27.070;2023-11-22T01:08:33;101127.32;;;-7.85;100.0
63691;BME280;49837;57.280;27.070;2023-11-22T01:09:33;101123.95;;;-7.9;100.0
63691;BME280;49837;57.280;27.070;2023-11-22T01:10:34;101128.18;;;-7.83;100.0
63691;BME280;49837;57.280;27.070;2023-11-22T01:11:34;101125.22;;;-7.79;100.0
63691;BME280;49837;57.280;27.070;2023-11-22T01:12:34;101124.94;;;-7.81;100.0
63691;BME280;49837;57.280;27.070;2023-11-22T01:13:35;101120.74;;;-7.78;100.0
63691;BME280;49837;57.280;27.070;2023-11-22T01:14:35;101119.58;;;-7.72;100.0
63691;BME280;49837;57.280;27.070;2023-11-22T01:15:35;101117.67;;;-7.74;100.0
63691;BME280;49837;57.280;27.070;2023-11-22T01:16:36;101118.84;;;-7.72;100.0
63691;BME280;49837;57.280;27.070;2023-11-22T01:17:36;101119.62;;;-7.8;100.0
63691;BME280;49837;57.280;27.070;2023-11-22T01:18:37;101116.55;;;-7.84;100.0
63691;BME280;49837;57.280;27.070;2023-11-22T01:19:37;101113.88;;;-7.85;100.0
63691;BME280;49837;57.280;27.070;2023-11-22T01:20:37;101113.16;;;-7.75;100.0
63691;BME280;49837;57.280;27.070;2023-11-22T01:21:38;101114.36;;;-7.74;100.0
63691;BME280;49837;57.280;27.070;2023-11-22T01:22:38;101115.24;;;-7.74;100.0
63691;BME280;49837;57.280;27.070;2023-11-22T01:23:39;101112.16;;;-7.73;100.0
63691;BME280;49837;57.280;27.070;2023-11-22T01:24:39;101115.99;;;-7.75;100.0
63691;BME280;49837;57.280;27.070;2023-11-22T01:25:40;101119.75;;;-7.76;100.0
63691;BME280;49837;57.280;27.070;2023-11-22T01:26:40;101117.85;;;-7.79;100.0
63691;BME280;49837;57.280;27.070;2023-11-22T01:27:40;101122.27;;;-7.79;100.0
63691;BME280;49837;57.280;27.070;2023-11-22T01:28:40;101125.03;;;-7.77;100.0
63691;BME280;49837;57.280;27.070;2023-11-22T01:29:41;101124.25;;;-7.81;100.0
63691;BME280;49837;57.280;27.070;2023-11-22T01:30:41;101126.16;;;-7.81;100.0
63691;BME280;49837;57.280;27.070;2023-11-22T01:31:42;101126.34;;;-7.84;100.0
63691;BME280;49837;57.280;27.070;2023-11-22T01:32:42;101127.98;;;-7.88;100.0
63691;BME280;49837;57.280;27.070;2023-11-22T01:33:42;101128.45;;;-7.89;100.0
63691;BME280;49837;57.280;27.070;2023-11-22T01:34:43;101127.77;;;-7.87;100.0
63691;BME280;49837;57.280;27.070;2023-11-22T01:35:43;101124.32;;;-7.87;100.0
63691;BME280;49837;57.280;27.070;2023-11-22T01:36:44;101128.97;;;-7.86;100.0
63691;BME280;49837;57.280;27.070;2023-11-22T01:37:44;101128.62;;;-7.79;100.0
63691;BME280;49837;57.280;27.070;2023-11-22T01:38:44;101129.06;;;-7.83;100.0
63691;BME280;49837;57.280;27.070;2023-11-22T01:39:45;101131.16;;;-7.82;100.0
63691;BME280;49837;57.280;27.070;2023-11-22T01:40:46;101126.17;;;-7.84;100.0
63691;BME280;49837;57.280;27.070;2023-11-22T01:41:45;101128.5;;;-7.85;100.0
63691;BME280;49837;57.280;27.070;2023-11-22T01:42:46;101128.66;;;-7.85;100.0
63691;BME280;49837;57.280;27.070;2023-11-22T01:43:46;101129.98;;;-7.87;100.0
63691;BME280;49837;57.280;27.070;2023-11-22T01:44:47;101132.09;;;-7.84;100.0
63691;BME280;49837;57.280;27.070;2023-11-22T01:45:47;101131.87;;;-7.85;100.0
63691;BME280;49837;57.280;27.070;2023-11-22T01:46:48;101132.83;;;-7.85;100.0
63691;BME280;49837;57.280;27.070;2023-11-22T01:47:48;101134.53;;;-7.87;100.0
63691;BME280;49837;57.280;27.070;2023-11-22T01:48:48;101132.8;;;-7.88;100.0
63691;BME280;49837;57.280;27.070;2023-11-22T01:49:49;101133.05;;;-7.84;100.0
63691;BME280;49837;57.280;27.070;2023-11-22T01:50:49;101137.84;;;-7.76;100.0
63691;BME280;49837;57.280;27.070;2023-11-22T01:51:49;101134.34;;;-7.71;100.0
63691;BME280;49837;57.280;27.070;2023-11-22T01:52:50;101132.68;;;-7.75;100.0
63691;BME280;49837;57.280;27.070;2023-11-22T01:53:52;101131.8;;;-7.82;100.0
63691;BME280;49837;57.280;27.070;2023-11-22T01:54:50;101128.67;;;-7.84;100.0
63691;BME280;49837;57.280;27.070;2023-11-22T01:55:51;101127.07;;;-7.8;100.0
63691;BME280;49837;57.280;27.070;2023-11-22T01:56:51;101127.03;;;-7.81;100.0
63691;BME280;49837;57.280;27.070;2023-11-22T01:57:51;101125.11;;;-7.81;100.0
63691;BME280;49837;57.280;27.070;2023-11-22T01:58:53;101123.61;;;-7.79;100.0
63691;BME280;49837;57.280;27.070;2023-11-22T01:59:52;101123.48;;;-7.81;100.0
63691;BME280;49837;57.280;27.070;2023-11-22T02:00:53;101127.3;;;-7.79;100.0
63691;BME280;49837;57.280;27.070;2023-11-22T02:01:53;101125.12;;;-7.78;100.0
63691;BME280;49837;57.280;27.070;2023-11-22T02:02:53;101127.42;;;-7.8;100.0
63691;BME280;49837;57.280;27.070;2023-11-22T02:03:54;101131.22;;;-7.81;100.0
63691;BME280;49837;57.280;27.070;2023-11-22T02:04:54;101128.56;;;-7.84;100.0
63691;BME280;49837;57.280;27.070;2023-11-22T02:05:55;101129.71;;;-7.87;100.0
63691;BME280;49837;57.280;27.070;2023-11-22T02:06:55;101131.61;;;-7.89;100.0
63691;BME280;49837;57.280;27.070;2023-11-22T02:07:56;101133.44;;;-7.91;100.0
63691;BME280;49837;57.280;27.070;2023-11-22T02:08:56;101128.82;;;-7.85;100.0
63691;BME280;49837;57.280;27.070;2023-11-22T02:09:56;101126.1;;;-7.84;100.0
63691;BME280;49837;57.280;27.070;2023-11-22T02:11:00;101129.35;;;-7.79;100.0
63691;BME280;49837;57.280;27.070;2023-11-22T02:11:59;101129.77;;;-7.79;100.0
63691;BME280;49837;57.280;27.070;2023-11-22T02:12:59;101131.2;;;-7.76;100.0
63691;BME280;49837;57.280;27.070;2023-11-22T02:14:00;101130.3;;;-7.74;100.0
63691;BME280;49837;57.280;27.070;2023-11-22T02:15:00;101131.58;;;-7.83;100.0
63691;BME280;49837;57.280;27.070;2023-11-22T02:16:01;101133.8;;;-7.83;100.0
63691;BME280;49837;57.280;27.070;2023-11-22T02:17:01;101132.62;;;-7.81;100.0
63691;BME280;49837;57.280;27.070;2023-11-22T02:18:02;101132.09;;;-7.8;100.0
63691;BME280;49837;57.280;27.070;2023-11-22T02:19:06;101133.94;;;-7.79;100.0
63691;BME280;49837;57.280;27.070;2023-11-22T02:20:05;101138.15;;;-7.82;100.0
63691;BME280;49837;57.280;27.070;2023-11-22T02:21:06;101140.33;;;-7.87;100.0
63691;BME280;49837;57.280;27.070;2023-11-22T02:22:05;101141.31;;;-7.92;100.0
63691;BME280;49837;57.280;27.070;2023-11-22T02:23:09;101142.27;;;-7.92;100.0
63691;BME280;49837;57.280;27.070;2023-11-22T02:24:07;101142.5;;;-7.96;100.0
63691;BME280;49837;57.280;27.070;2023-11-22T02:25:07;101140.94;;;-7.98;100.0
63691;BME280;49837;57.280;27.070;2023-11-22T02:26:08;101140.36;;;-7.98;100.0
63691;BME280;49837;57.280;27.070;2023-11-22T02:27:08;101141.98;;;-7.98;100.0
63691;BME280;49837;57.280;27.070;2023-11-22T02:28:08;101138.5;;;-8.0;100.0
63691;BME280;49837;57.280;27.070;2023-11-22T02:29:09;101140.72;;;-8.0;100.0
63691;BME280;49837;57.280;27.070;2023-11-22T02:30:10;101145.49;;;-8.03;100.0
63691;BME280;49837;57.280;27.070;2023-11-22T02:31:09;101140.16;;;-8.07;100.0
63691;BME280;49837;57.280;27.070;2023-11-22T02:32:10;101140.92;;;-8.09;100.0
63691;BME280;49837;57.280;27.070;2023-11-22T02:33:10;101141.92;;;-8.14;100.0
63691;BME280;49837;57.280;27.070;2023-11-22T02:34:11;101138.75;;;-8.18;100.0
63691;BME280;49837;57.280;27.070;2023-11-22T02:35:11;101142.06;;;-8.18;100.0
63691;BME280;49837;57.280;27.070;2023-11-22T02:36:12;101141.03;;;-8.21;100.0
63691;BME280;49837;57.280;27.070;2023-11-22T02:37:12;101141.3;;;-8.23;100.0
63691;BME280;49837;57.280;27.070;2023-11-22T02:38:12;101135.84;;;-8.25;100.0
63691;BME280;49837;57.280;27.070;2023-11-22T02:39:12;101141.12;;;-8.27;100.0
63691;BME280;49837;57.280;27.070;2023-11-22T02:40:20;101138.75;;;-8.3;100.0
63691;BME280;49837;57.280;27.070;2023-11-22T02:41:18;101144.02;;;-8.34;100.0
63691;BME280;49837;57.280;27.070;2023-11-22T02:42:18;101145.92;;;-8.37;100.0
63691;BME280;49837;57.280;27.070;2023-11-22T02:43:19;101148.03;;;-8.37;100.0
63691;BME280;49837;57.280;27.070;2023-11-22T02:44:19;101148.11;;;-8.44;100.0
63691;BME280;49837;57.280;27.070;2023-11-22T02:45:24;101150.02;;;-8.47;100.0
63691;BME280;49837;57.280;27.070;2023-11-22T02:46:21;101149.08;;;-8.44;100.0
63691;BME280;49837;57.280;27.070;2023-11-22T02:47:22;101146.98;;;-8.44;100.0
63691;BME280;49837;57.280;27.070;2023-11-22T02:48:22;101148.33;;;-8.41;100.0
63691;BME280;49837;57.280;27.070;2023-11-22T02:49:22;101145.91;;;-8.39;100.0
63691;BME280;49837;57.280;27.070;2023-11-22T02:50:23;101144.09;;;-8.45;100.0
63691;BME280;49837;57.280;27.070;2023-11-22T02:51:23;101146.35;;;-8.48;100.0
63691;BME280;49837;57.280;27.070;2023-11-22T02:52:23;101148.18;;;-8.52;100.0
63691;BME280;49837;57.280;27.070;2023-11-22T02:53:24;101149.76;;;-8.66;100.0
63691;BME280;49837;57.280;27.070;2023-11-22T02:54:24;101146.72;;;-8.76;100.0
63691;BME280;49837;57.280;27.070;2023-11-22T02:55:25;101148.64;;;-8.83;100.0
63691;BME280;49837;57.280;27.070;2023-11-22T02:56:25;101147.23;;;-8.85;100.0
63691;BME280;49837;57.280;27.070;2023-11-22T02:57:25;101151.74;;;-8.78;100.0
63691;BME280;49837;57.280;27.070;2023-11-22T02:58:28;101146.96;;;-8.81;100.0
63691;BME280;49837;57.280;27.070;2023-11-22T02:59:26;101144.91;;;-8.8;100.0
63691;BME280;49837;57.280;27.070;2023-11-22T03:00:26;101148.63;;;-8.88;100.0
63691;BME280;49837;57.280;27.070;2023-11-22T03:01:27;101145.94;;;-8.84;100.0
63691;BME280;49837;57.280;27.070;2023-11-22T03:02:27;101147.36;;;-8.87;100.0
63691;BME280;49837;57.280;27.070;2023-11-22T03:03:28;101149.08;;;-8.83;100.0
63691;BME280;49837;57.280;27.070;2023-11-22T03:04:28;101147.89;;;-8.9;100.0
63691;BME280;49837;57.280;27.070;2023-11-22T03:05:28;101150.23;;;-8.98;100.0
63691;BME280;49837;57.280;27.070;2023-11-22T03:06:29;101149.5;;;-9.04;100.0
63691;BME280;49837;57.280;27.070;2023-11-22T03:07:29;101145.67;;;-9.07;100.0
63691;BME280;49837;57.280;27.070;2023-11-22T03:08:29;101142.66;;;-8.99;100.0
63691;BME280;49837;57.280;27.070;2023-11-22T03:09:30;101146.48;;;-8.95;100.0
63691;BME280;49837;57.280;27.070;2023-11-22T03:10:30;101142.55;;;-8.98;100.0
63691;BME280;49837;57.280;27.070;2023-11-22T03:11:30;101147.81;;;-9.03;100.0
63691;BME280;49837;57.280;27.070;2023-11-22T03:12:31;101146.25;;;-9.08;100.0
63691;BME280;49837;57.280;27.070;2023-11-22T03:13:31;101145.67;;;-9.16;100.0
63691;BME280;49837;57.280;27.070;2023-11-22T03:14:32;101141.27;;;-9.24;100.0
63691;BME280;49837;57.280;27.070;2023-11-22T03:15:32;101145.27;;;-9.3;100.0
63691;BME280;49837;57.280;27.070;2023-11-22T03:16:33;101144.75;;;-9.28;100.0
63691;BME280;49837;57.280;27.070;2023-11-22T03:17:33;101142.75;;;-9.27;100.0
63691;BME280;49837;57.280;27.070;2023-11-22T03:18:34;101142.18;;;-9.29;100.0
63691;BME280;49837;57.280;27.070;2023-11-22T03:19:34;101145.12;;;-9.23;100.0
63691;BME280;49837;57.280;27.070;2023-11-22T03:20:35;101144.12;;;-9.21;100.0
63691;BME280;49837;57.280;27.070;2023-11-22T03:21:35;101142.95;;;-9.23;100.0
63691;BME280;49837;57.280;27.070;2023-11-22T03:22:35;101141.95;;;-9.21;100.0
63691;BME280;49837;57.280;27.070;2023-11-22T03:23:36;101142.33;;;-9.2;100.0
63691;BME280;49837;57.280;27.070;2023-11-22T03:24:37;101143.97;;;-9.21;100.0
63691;BME280;49837;57.280;27.070;2023-11-22T03:25:37;101147.58;;;-9.25;100.0
63691;BME280;49837;57.280;27.070;2023-11-22T03:26:37;101144.8;;;-9.31;100.0
63691;BME280;49837;57.280;27.070;2023-11-22T03:27:38;101145.29;;;-9.41;100.0
63691;BME280;49837;57.280;27.070;2023-11-22T03:28:38;101144.8;;;-9.44;100.0
63691;BME280;49837;57.280;27.070;2023-11-22T03:29:39;101148.55;;;-9.42;100.0
63691;BME280;49837;57.280;27.070;2023-11-22T03:30:39;101149.29;;;-9.52;100.0
63691;BME280;49837;57.280;27.070;2023-11-22T03:31:40;101145.73;;;-9.58;100.0
63691;BME280;49837;57.280;27.070;2023-11-22T03:32:40;101147.41;;;-9.57;100.0
63691;BME280;49837;57.280;27.070;2023-11-22T03:33:41;101147.44;;;-9.57;100.0
63691;BME280;49837;57.280;27.070;2023-11-22T03:34:41;101143.03;;;-9.54;100.0
63691;BME280;49837;57.280;27.070;2023-11-22T03:35:42;101146.17;;;-9.47;100.0
63691;BME280;49837;57.280;27.070;2023-11-22T03:36:42;101146.23;;;-9.51;100.0
63691;BME280;49837;57.280;27.070;2023-11-22T03:37:42;101145.7;;;-9.54;100.0
63691;BME280;49837;57.280;27.070;2023-11-22T03:38:43;101144.65;;;-9.57;100.0
63691;BME280;49837;57.280;27.070;2023-11-22T03:39:43;101141.34;;;-9.56;100.0
63691;BME280;49837;57.280;27.070;2023-11-22T03:40:44;101142.94;;;-9.59;100.0
63691;BME280;49837;57.280;27.070;2023-11-22T03:41:44;101139.71;;;-9.61;100.0
63691;BME280;49837;57.280;27.070;2023-11-22T03:42:45;101140.26;;;-9.66;100.0
63691;BME280;49837;57.280;27.070;2023-11-22T03:43:45;101149.15;;;-9.72;100.0
63691;BME280;49837;57.280;27.070;2023-11-22T03:44:45;101149.3;;;-9.76;100.0
63691;BME280;49837;57.280;27.070;2023-11-22T03:45:46;101150.39;;;-9.73;100.0
63691;BME280;49837;57.280;27.070;2023-11-22T03:46:46;101149.85;;;-9.74;100.0
63691;BME280;49837;57.280;27.070;2023-11-22T03:47:47;101148.93;;;-9.83;100.0
63691;BME280;49837;57.280;27.070;2023-11-22T03:48:47;101153.08;;;-9.81;100.0
63691;BME280;49837;57.280;27.070;2023-11-22T03:49:48;101151.64;;;-9.78;100.0
63691;BME280;49837;57.280;27.070;2023-11-22T03:50:48;101149.42;;;-9.73;100.0
63691;BME280;49837;57.280;27.070;2023-11-22T03:51:49;101152.57;;;-9.79;100.0
63691;BME280;49837;57.280;27.070;2023-11-22T03:52:49;101154.5;;;-9.88;100.0
63691;BME280;49837;57.280;27.070;2023-11-22T03:53:50;101155.97;;;-9.84;100.0
63691;BME280;49837;57.280;27.070;2023-11-22T03:54:50;101157.58;;;-9.8;100.0
63691;BME280;49837;57.280;27.070;2023-11-22T03:55:52;101156.84;;;-9.81;100.0
63691;BME280;49837;57.280;27.070;2023-11-22T03:56:51;101159.05;;;-9.86;100.0
63691;BME280;49837;57.280;27.070;2023-11-22T03:57:51;101159.14;;;-9.86;100.0
63691;BME280;49837;57.280;27.070;2023-11-22T03:58:52;101156.67;;;-9.88;100.0
63691;BME280;49837;57.280;27.070;2023-11-22T03:59:52;101157.98;;;-9.94;100.0
63691;BME280;49837;57.280;27.070;2023-11-22T04:00:53;101160.62;;;-9.88;100.0
63691;BME280;49837;57.280;27.070;2023-11-22T04:01:53;101164.52;;;-9.83;100.0
63691;BME280;49837;57.280;27.070;2023-11-22T04:02:54;101171.05;;;-9.83;100.0
63691;BME280;49837;57.280;27.070;2023-11-22T04:03:54;101169.75;;;-9.9;100.0
63691;BME280;49837;57.280;27.070;2023-11-22T04:04:55;101167.16;;;-10.06;100.0
63691;BME280;49837;57.280;27.070;2023-11-22T04:05:55;101164.48;;;-10.06;100.0
63691;BME280;49837;57.280;27.070;2023-11-22T04:06:56;101168.58;;;-9.94;100.0
63691;BME280;49837;57.280;27.070;2023-11-22T04:07:56;101168.73;;;-9.94;100.0
63691;BME280;49837;57.280;27.070;2023-11-22T04:08:58;101168.02;;;-9.95;100.0
63691;BME280;49837;57.280;27.070;2023-11-22T04:09:57;101172.46;;;-9.93;100.0
63691;BME280;49837;57.280;27.070;2023-11-22T04:10:57;101170.48;;;-9.93;100.0
63691;BME280;49837;57.280;27.070;2023-11-22T04:11:58;101168.1;;;-9.94;100.0
63691;BME280;49837;57.280;27.070;2023-11-22T04:12:58;101172.06;;;-9.95;100.0
63691;BME280;49837;57.280;27.070;2023-11-22T04:13:59;101172.5;;;-10.01;100.0
63691;BME280;49837;57.280;27.070;2023-11-22T04:14:59;101173.18;;;-10.05;100.0
63691;BME280;49837;57.280;27.070;2023-11-22T04:16:00;101174.66;;;-10.11;100.0
63691;BME280;49837;57.280;27.070;2023-11-22T04:17:00;101170.11;;;-10.15;100.0
63691;BME280;49837;57.280;27.070;2023-11-22T04:18:01;101169.12;;;-10.14;100.0
63691;BME280;49837;57.280;27.070;2023-11-22T04:19:01;101166.23;;;-10.17;100.0
63691;BME280;49837;57.280;27.070;2023-11-22T04:20:02;101166.16;;;-10.24;100.0
63691;BME280;49837;57.280;27.070;2023-11-22T04:21:02;101168.68;;;-10.32;100.0
63691;BME280;49837;57.280;27.070;2023-11-22T04:22:03;101170.34;;;-10.41;100.0
63691;BME280;49837;57.280;27.070;2023-11-22T04:23:03;101164.66;;;-10.4;100.0
63691;BME280;49837;57.280;27.070;2023-11-22T04:24:04;101171.11;;;-10.39;100.0
63691;BME280;49837;57.280;27.070;2023-11-22T04:25:04;101168.22;;;-10.4;100.0
63691;BME280;49837;57.280;27.070;2023-11-22T04:26:04;101170.3;;;-10.39;100.0
63691;BME280;49837;57.280;27.070;2023-11-22T04:27:05;101165.78;;;-10.39;100.0
63691;BME280;49837;57.280;27.070;2023-11-22T04:28:05;101164.89;;;-10.39;100.0
63691;BME280;49837;57.280;27.070;2023-11-22T04:29:06;101166.22;;;-10.4;100.0
63691;BME280;49837;57.280;27.070;2023-11-22T04:30:07;101166.41;;;-10.45;100.0
63691;BME280;49837;57.280;27.070;2023-11-22T04:31:07;101169.72;;;-10.47;100.0
63691;BME280;49837;57.280;27.070;2023-11-22T04:32:07;101169.48;;;-10.48;100.0
63691;BME280;49837;57.280;27.070;2023-11-22T04:33:08;101171.56;;;-10.46;100.0
63691;BME280;49837;57.280;27.070;2023-11-22T04:34:08;101170.2;;;-10.47;100.0
63691;BME280;49837;57.280;27.070;2023-11-22T04:35:09;101171.16;;;-10.57;100.0
63691;BME280;49837;57.280;27.070;2023-11-22T04:36:09;101168.21;;;-10.65;100.0
63691;BME280;49837;57.280;27.070;2023-11-22T04:37:10;101172.16;;;-10.64;100.0
63691;BME280;49837;57.280;27.070;2023-11-22T04:38:10;101167.91;;;-10.53;100.0
63691;BME280;49837;57.280;27.070;2023-11-22T04:39:11;101171.09;;;-10.46;100.0
63691;BME280;49837;57.280;27.070;2023-11-22T04:40:11;101169.31;;;-10.51;100.0
63691;BME280;49837;57.280;27.070;2023-11-22T04:41:12;101170.17;;;-10.44;100.0
63691;BME280;49837;57.280;27.070;2023-11-22T04:42:12;101169.19;;;-10.41;100.0
63691;BME280;49837;57.280;27.070;2023-11-22T04:43:13;101170.62;;;-10.46;100.0
63691;BME280;49837;57.280;27.070;2023-11-22T04:44:13;101171.73;;;-10.45;100.0
63691;BME280;49837;57.280;27.070;2023-11-22T04:45:14;101174.98;;;-10.49;100.0
63691;BME280;49837;57.280;27.070;2023-11-22T04:46:14;101172.36;;;-10.54;100.0
63691;BME280;49837;57.280;27.070;2023-11-22T04:47:15;101175.34;;;-10.59;100.0
63691;BME280;49837;57.280;27.070;2023-11-22T04:48:15;101171.08;;;-10.62;100.0
63691;BME280;49837;57.280;27.070;2023-11-22T04:49:16;101164.7;;;-10.58;100.0
63691;BME280;49837;57.280;27.070;2023-11-22T04:50:16;101169.6;;;-10.52;100.0
63691;BME280;49837;57.280;27.070;2023-11-22T04:51:17;101168.12;;;-10.54;100.0
63691;BME280;49837;57.280;27.070;2023-11-22T04:52:17;101166.79;;;-10.59;100.0
63691;BME280;49837;57.280;27.070;2023-11-22T04:53:19;101172.22;;;-10.58;100.0
63691;BME280;49837;57.280;27.070;2023-11-22T04:54:18;101171.53;;;-10.52;100.0
63691;BME280;49837;57.280;27.070;2023-11-22T04:55:18;101175.34;;;-10.55;100.0
63691;BME280;49837;57.280;27.070;2023-11-22T04:56:19;101175.47;;;-10.65;100.0
63691;BME280;49837;57.280;27.070;2023-11-22T04:57:19;101176.83;;;-10.61;100.0
63691;BME280;49837;57.280;27.070;2023-11-22T04:58:20;101172.5;;;-10.65;100.0
63691;BME280;49837;57.280;27.070;2023-11-22T04:59:20;101175.02;;;-10.68;100.0
63691;BME280;49837;57.280;27.070;2023-11-22T05:00:21;101176.3;;;-10.71;100.0
63691;BME280;49837;57.280;27.070;2023-11-22T05:01:21;101175.62;;;-10.66;100.0
63691;BME280;49837;57.280;27.070;2023-11-22T05:02:22;101177.55;;;-10.75;100.0
63691;BME280;49837;57.280;27.070;2023-11-22T05:03:22;101180.58;;;-10.76;100.0
63691;BME280;49837;57.280;27.070;2023-11-22T05:04:22;101182.33;;;-10.86;100.0
63691;BME280;49837;57.280;27.070;2023-11-22T05:05:23;101179.73;;;-10.8;100.0
63691;BME280;49837;57.280;27.070;2023-11-22T05:06:23;101179.83;;;-10.73;100.0
63691;BME280;49837;57.280;27.070;2023-11-22T05:07:24;101180.58;;;-10.76;100.0
63691;BME280;49837;57.280;27.070;2023-11-22T05:08:24;101178.86;;;-10.79;100.0
63691;BME280;49837;57.280;27.070;2023-11-22T05:09:25;101184.62;;;-10.8;100.0
63691;BME280;49837;57.280;27.070;2023-11-22T05:10:25;101181.93;;;-10.85;100.0
63691;BME280;49837;57.280;27.070;2023-11-22T05:11:26;101181.77;;;-10.82;100.0